Time;durP1;ratioP1;P1;durP2;ratioP2;P2;SDS_P1;SDS_P2;PMS_P1;PMS_P2;Temp;Humidity;BMP_temperature;BMP_pressure;BME280_temperature;BME280_humidity;BME280_pressure;Samples;Min_cycle;Max_cycle;Signal;HPM_P1;HPM_P2
2022/01/09 00:00:24;;;;;;;17.73;3.57;;;;;;;;;;5107306;28;20281;-81
2022/01/09 00:02:52;;;;;;;14.07;3.07;;;;;;;;;;5093445;28;20205;-80
2022/01/09 00:05:19;;;;;;;18.20;3.13;;;;;;;;;;5093763;28;20218;-80
2022/01/09 00:07:47;;;;;;;18.70;3.07;;;;;;;;;;5093176;28;20749;-81
2022/01/09 00:10:15;;;;;;;15.97;3.50;;;;;;;;;;5110084;28;20296;-81
2022/01/09 00:12:43;;;;;;;14.20;3.03;;;;;;;;;;5113639;28;20281;-81
2022/01/09 00:15:11;;;;;;;17.73;2.73;;;;;;;;;;5113363;28;20407;-81
2022/01/09 00:17:38;;;;;;;16.07;2.97;;;;;;;;;;5107614;28;20195;-80
2022/01/09 00:20:07;;;;;;;19.57;2.80;;;;;;;;;;5095666;28;20222;-81
2022/01/09 00:22:38;;;;;;;10.60;2.30;;;;;;;;;;5093370;28;20287;-80
2022/01/09 00:25:06;;;;;;;10.67;2.13;;;;;;;;;;5091639;28;20211;-81
2022/01/09 00:27:36;;;;;;;16.30;2.90;;;;;;;;;;5093387;28;20230;-81
2022/01/09 00:30:04;;;;;;;12.63;2.53;;;;;;;;;;5092371;28;20202;-81
2022/01/09 00:32:31;;;;;;;20.47;2.60;;;;;;;;;;5093141;28;20229;-81
2022/01/09 00:34:59;;;;;;;15.93;2.67;;;;;;;;;;5098751;28;20281;-81
2022/01/09 00:37:26;;;;;;;13.97;2.13;;;;;;;;;;5092509;28;20225;-81
2022/01/09 00:39:53;;;;;;;12.30;2.60;;;;;;;;;;5092232;28;20290;-81
2022/01/09 00:42:21;;;;;;;15.63;2.90;;;;;;;;;;5092802;28;20286;-81
2022/01/09 00:44:50;;;;;;;18.47;2.67;;;;;;;;;;5092026;28;20307;-81
2022/01/09 00:47:17;;;;;;;15.03;2.90;;;;;;;;;;5092197;28;20660;-80
2022/01/09 00:49:44;;;;;;;16.33;2.90;;;;;;;;;;5092390;28;20277;-81
2022/01/09 00:52:11;;;;;;;10.17;2.30;;;;;;;;;;5091947;28;20282;-80
2022/01/09 00:54:39;;;;;;;12.37;2.97;;;;;;;;;;5091630;28;20242;-80
2022/01/09 00:57:06;;;;;;;16.03;2.87;;;;;;;;;;5092498;28;20258;-80
2022/01/09 00:59:33;;;;;;;15.00;3.13;;;;;;;;;;5091643;28;20262;-81
2022/01/09 01:02:02;;;;;;;17.53;3.00;;;;;;;;;;5091214;28;20635;-80
2022/01/09 01:04:29;;;;;;;16.43;3.07;;;;;;;;;;5097935;28;20282;-80
2022/01/09 01:06:56;;;;;;;11.07;2.40;;;;;;;;;;5092141;28;20221;-80
2022/01/09 01:09:26;;;;;;;14.37;2.77;;;;;;;;;;5091343;28;20245;-81
2022/01/09 01:11:53;;;;;;;18.90;2.90;;;;;;;;;;5095600;28;20221;-81
2022/01/09 01:14:22;;;;;;;16.13;2.73;;;;;;;;;;5109359;28;20466;-80
2022/01/09 01:16:50;;;;;;;15.87;2.70;;;;;;;;;;5110437;28;20197;-80
2022/01/09 01:19:18;;;;;;;15.47;2.57;;;;;;;;;;5091663;28;20670;-80
2022/01/09 01:21:45;;;;;;;12.73;2.80;;;;;;;;;;5091308;28;20214;-80
2022/01/09 01:24:13;;;;;;;18.90;3.30;;;;;;;;;;5091459;28;20643;-80
2022/01/09 01:26:40;;;;;;;15.40;2.97;;;;;;;;;;5101146;28;20198;-80
2022/01/09 01:29:07;;;;;;;13.37;2.60;;;;;;;;;;5105938;28;20222;-81
2022/01/09 01:31:34;;;;;;;15.70;2.97;;;;;;;;;;5091361;28;20227;-80
2022/01/09 01:34:01;;;;;;;13.80;2.33;;;;;;;;;;5090948;28;20302;-80
2022/01/09 01:36:30;;;;;;;9.30;1.93;;;;;;;;;;5091240;28;20294;-80
2022/01/09 01:38:57;;;;;;;13.10;2.27;;;;;;;;;;5110501;28;20225;-80
2022/01/09 01:41:24;;;;;;;12.70;2.43;;;;;;;;;;5091801;28;20269;-81
2022/01/09 01:43:52;;;;;;;15.87;2.17;;;;;;;;;;5090812;28;20257;-81
2022/01/09 01:46:22;;;;;;;15.00;2.90;;;;;;;;;;5091450;28;20244;-81
2022/01/09 01:48:49;;;;;;;17.00;2.80;;;;;;;;;;5091520;28;20243;-80
2022/01/09 01:51:16;;;;;;;11.47;2.47;;;;;;;;;;5091856;28;20254;-81
2022/01/09 01:53:45;;;;;;;16.43;2.47;;;;;;;;;;5091262;28;20287;-80
2022/01/09 01:56:19;;;;;;;11.47;2.77;;;;;;;;;;5091108;28;20260;-80
2022/01/09 01:58:46;;;;;;;14.07;2.90;;;;;;;;;;5091165;28;20221;-80
2022/01/09 02:01:13;;;;;;;11.43;2.43;;;;;;;;;;5091334;28;20288;-81
2022/01/09 02:03:40;;;;;;;19.03;3.10;;;;;;;;;;5090737;28;20282;-81
2022/01/09 02:06:08;;;;;;;12.80;2.83;;;;;;;;;;5090792;28;20692;-80
2022/01/09 02:08:35;;;;;;;12.23;2.40;;;;;;;;;;5091481;28;20231;-80
2022/01/09 02:11:03;;;;;;;15.20;3.30;;;;;;;;;;5090946;28;20932;-81
2022/01/09 02:13:31;;;;;;;13.93;2.10;;;;;;;;;;5111937;28;20310;-80
2022/01/09 02:16:00;;;;;;;16.00;2.60;;;;;;;;;;5111670;28;20208;-80
2022/01/09 02:18:28;;;;;;;14.00;2.93;;;;;;;;;;5107782;28;20196;-80
2022/01/09 02:20:57;;;;;;;16.17;2.80;;;;;;;;;;5100103;28;20202;-80
2022/01/09 02:23:24;;;;;;;12.80;2.30;;;;;;;;;;5095334;28;20518;-80
2022/01/09 02:25:51;;;;;;;14.90;2.20;;;;;;;;;;5091147;28;20206;-80
2022/01/09 02:28:19;;;;;;;10.47;1.70;;;;;;;;;;5091251;28;20201;-80
2022/01/09 02:30:46;;;;;;;10.87;2.10;;;;;;;;;;5091144;28;20286;-80
2022/01/09 02:33:16;;;;;;;10.43;1.60;;;;;;;;;;5090636;28;20203;-80
2022/01/09 02:35:44;;;;;;;8.30;1.57;;;;;;;;;;5090947;28;20280;-80
2022/01/09 02:38:12;;;;;;;10.57;2.20;;;;;;;;;;5092024;28;20925;-80
2022/01/09 02:40:39;;;;;;;10.97;1.87;;;;;;;;;;5098016;28;20707;-81
2022/01/09 02:43:07;;;;;;;12.43;1.87;;;;;;;;;;5090885;28;20642;-80
2022/01/09 02:45:35;;;;;;;12.63;2.30;;;;;;;;;;5090670;28;20663;-80
2022/01/09 02:48:03;;;;;;;14.20;1.70;;;;;;;;;;5093102;28;20205;-81
2022/01/09 02:50:36;;;;;;;13.70;1.97;;;;;;;;;;5094292;28;20605;-78
2022/01/09 02:53:13;;;;;;;10.93;1.93;;;;;;;;;;5094575;28;20215;-78
2022/01/09 02:55:42;;;;;;;15.00;2.33;;;;;;;;;;5087005;28;20353;-78
2022/01/09 02:58:09;;;;;;;18.53;2.70;;;;;;;;;;5078509;28;20244;-78
2022/01/09 03:00:38;;;;;;;12.57;1.90;;;;;;;;;;5078698;28;20229;-78
2022/01/09 03:03:05;;;;;;;14.33;1.90;;;;;;;;;;5094368;28;20198;-78
2022/01/09 03:05:32;;;;;;;9.17;1.93;;;;;;;;;;5094976;28;20305;-78
2022/01/09 03:08:00;;;;;;;8.77;1.80;;;;;;;;;;5093829;28;20225;-78
2022/01/09 03:10:27;;;;;;;16.10;2.33;;;;;;;;;;5094477;28;20307;-78
2022/01/09 03:12:57;;;;;;;12.33;1.50;;;;;;;;;;5094310;28;20259;-78
2022/01/09 03:15:25;;;;;;;15.53;2.40;;;;;;;;;;5096551;28;20202;-78
2022/01/09 03:17:52;;;;;;;16.70;2.23;;;;;;;;;;5102790;28;20283;-78
2022/01/09 03:20:21;;;;;;;10.47;1.93;;;;;;;;;;5098005;28;20258;-78
2022/01/09 03:22:48;;;;;;;18.50;2.60;;;;;;;;;;5093389;28;20202;-78
2022/01/09 03:25:16;;;;;;;14.33;2.20;;;;;;;;;;5093819;28;20254;-78
2022/01/09 03:27:45;;;;;;;10.10;2.10;;;;;;;;;;5094541;28;20287;-78
2022/01/09 03:30:14;;;;;;;12.17;1.93;;;;;;;;;;5093648;28;20200;-78
2022/01/09 03:32:41;;;;;;;12.00;2.00;;;;;;;;;;5095691;28;20246;-78
2022/01/09 03:35:10;;;;;;;9.70;2.07;;;;;;;;;;5093897;28;20245;-78
2022/01/09 03:37:37;;;;;;;11.17;2.00;;;;;;;;;;5093964;28;20690;-78
2022/01/09 03:40:05;;;;;;;12.97;2.00;;;;;;;;;;5093288;28;20286;-78
2022/01/09 03:42:32;;;;;;;14.63;2.23;;;;;;;;;;5093763;28;20226;-78
2022/01/09 03:44:59;;;;;;;13.87;2.20;;;;;;;;;;5093645;28;20317;-78
2022/01/09 03:47:28;;;;;;;17.13;2.43;;;;;;;;;;5093240;28;20229;-78
2022/01/09 03:49:55;;;;;;;16.37;2.40;;;;;;;;;;5105836;28;20203;-78
2022/01/09 03:52:27;;;;;;;13.03;2.20;;;;;;;;;;5093659;28;20305;-78
2022/01/09 03:54:54;;;;;;;11.40;2.23;;;;;;;;;;5093673;28;20202;-78
2022/01/09 03:57:22;;;;;;;11.23;2.27;;;;;;;;;;5098560;28;20246;-78
2022/01/09 03:59:49;;;;;;;11.40;2.10;;;;;;;;;;5093495;28;20640;-78
2022/01/09 04:02:17;;;;;;;13.33;1.90;;;;;;;;;;5092591;28;20282;-78
2022/01/09 04:04:45;;;;;;;11.07;1.87;;;;;;;;;;5092886;28;20638;-78
2022/01/09 04:07:12;;;;;;;17.27;2.10;;;;;;;;;;5092877;28;20283;-77
2022/01/09 04:09:41;;;;;;;13.93;1.93;;;;;;;;;;5093308;28;20282;-78
2022/01/09 04:12:15;;;;;;;10.33;2.10;;;;;;;;;;5093269;28;20303;-78
2022/01/09 04:14:42;;;;;;;16.37;2.13;;;;;;;;;;5092928;28;20289;-78
2022/01/09 04:17:15;;;;;;;15.30;2.90;;;;;;;;;;5093467;28;20204;-78
2022/01/09 04:19:42;;;;;;;10.27;1.93;;;;;;;;;;5097764;28;20221;-78
2022/01/09 04:22:10;;;;;;;12.73;2.23;;;;;;;;;;5095660;28;20222;-78
2022/01/09 04:24:38;;;;;;;11.67;2.47;;;;;;;;;;5093015;28;20251;-78
2022/01/09 04:27:05;;;;;;;8.93;2.03;;;;;;;;;;5092748;28;20285;-78
2022/01/09 04:29:32;;;;;;;14.03;2.57;;;;;;;;;;5112341;28;20609;-78
2022/01/09 04:31:59;;;;;;;16.70;2.67;;;;;;;;;;5113404;28;20318;-78
2022/01/09 04:34:27;;;;;;;15.63;2.43;;;;;;;;;;5112930;28;20343;-78
2022/01/09 04:36:54;;;;;;;14.10;2.23;;;;;;;;;;5092014;28;20286;-78
2022/01/09 04:39:23;;;;;;;13.50;2.47;;;;;;;;;;5099134;28;20260;-78
2022/01/09 04:41:50;;;;;;;16.80;2.10;;;;;;;;;;5109606;28;20284;-78
2022/01/09 04:44:17;;;;;;;13.90;2.33;;;;;;;;;;5092176;28;20236;-78
2022/01/09 04:46:51;;;;;;;20.93;2.67;;;;;;;;;;5092413;28;20244;-77
2022/01/09 04:49:23;;;;;;;18.43;3.10;;;;;;;;;;5103568;28;20281;-78
2022/01/09 04:51:50;;;;;;;15.33;2.97;;;;;;;;;;5110101;28;20329;-78
2022/01/09 04:54:17;;;;;;;16.70;3.07;;;;;;;;;;5092394;28;20235;-78
2022/01/09 04:56:46;;;;;;;18.50;2.77;;;;;;;;;;5091741;28;20323;-78
2022/01/09 04:59:13;;;;;;;16.77;2.80;;;;;;;;;;5092706;28;20299;-78
2022/01/09 05:01:40;;;;;;;16.43;3.27;;;;;;;;;;5092610;28;20230;-78
2022/01/09 05:04:07;;;;;;;20.03;2.73;;;;;;;;;;5092542;28;20205;-78
2022/01/09 05:06:35;;;;;;;17.60;3.50;;;;;;;;;;5092027;28;20285;-79
2022/01/09 05:09:02;;;;;;;16.27;3.30;;;;;;;;;;5091898;28;20285;-78
2022/01/09 05:11:29;;;;;;;17.83;3.60;;;;;;;;;;5091302;28;20232;-78
2022/01/09 05:13:57;;;;;;;17.60;3.33;;;;;;;;;;5091924;28;20307;-78
2022/01/09 05:16:25;;;;;;;14.77;3.13;;;;;;;;;;5092130;28;20239;-78
2022/01/09 05:18:54;;;;;;;13.00;2.57;;;;;;;;;;5092380;28;20229;-78
2022/01/09 05:21:21;;;;;;;16.17;3.20;;;;;;;;;;5091599;28;20204;-78
2022/01/09 05:23:49;;;;;;;14.43;2.77;;;;;;;;;;5092311;28;20285;-78
2022/01/09 05:26:16;;;;;;;16.03;3.03;;;;;;;;;;5091368;28;20204;-79
2022/01/09 05:28:43;;;;;;;20.17;3.43;;;;;;;;;;5091929;28;20227;-78
2022/01/09 05:31:12;;;;;;;14.07;2.53;;;;;;;;;;5092033;28;20286;-78
2022/01/09 05:33:39;;;;;;;15.60;2.80;;;;;;;;;;5092039;28;20317;-78
2022/01/09 05:36:07;;;;;;;17.07;2.97;;;;;;;;;;5091559;28;20682;-78
2022/01/09 05:38:34;;;;;;;18.17;2.70;;;;;;;;;;5091901;28;20281;-78
2022/01/09 05:41:01;;;;;;;12.70;2.43;;;;;;;;;;5092111;28;20290;-78
2022/01/09 05:43:29;;;;;;;12.77;2.27;;;;;;;;;;5091206;28;20259;-78
2022/01/09 05:45:57;;;;;;;14.90;2.67;;;;;;;;;;5083289;28;20200;-78
2022/01/09 05:48:25;;;;;;;14.90;2.37;;;;;;;;;;5094891;28;20292;-78
2022/01/09 05:50:52;;;;;;;15.70;2.77;;;;;;;;;;5090913;28;20278;-78
2022/01/09 05:53:19;;;;;;;15.03;2.83;;;;;;;;;;5091255;28;20244;-78
2022/01/09 05:55:47;;;;;;;12.90;2.30;;;;;;;;;;5091292;28;20272;-78
2022/01/09 05:58:14;;;;;;;15.80;2.47;;;;;;;;;;5091327;28;20247;-78
2022/01/09 06:00:41;;;;;;;17.07;2.17;;;;;;;;;;5090991;28;20228;-78
2022/01/09 06:03:09;;;;;;;16.03;2.13;;;;;;;;;;5091490;28;20285;-78
2022/01/09 06:05:37;;;;;;;10.13;1.80;;;;;;;;;;5091544;28;20296;-78
2022/01/09 06:08:05;;;;;;;14.20;2.10;;;;;;;;;;5092018;28;20226;-78
2022/01/09 06:10:32;;;;;;;8.77;1.50;;;;;;;;;;5091471;28;20331;-78
2022/01/09 06:12:59;;;;;;;13.83;2.07;;;;;;;;;;5091633;28;20215;-78
2022/01/09 06:15:26;;;;;;;13.13;2.27;;;;;;;;;;5091304;28;20274;-78
2022/01/09 06:17:54;;;;;;;13.70;1.93;;;;;;;;;;5090804;28;20298;-78
2022/01/09 06:20:21;;;;;;;12.67;2.00;;;;;;;;;;5102711;28;20241;-78
2022/01/09 06:22:49;;;;;;;13.40;1.67;;;;;;;;;;5093303;28;20285;-80
2022/01/09 06:25:17;;;;;;;18.93;2.47;;;;;;;;;;5095257;28;20234;-81
2022/01/09 06:27:44;;;;;;;10.90;1.93;;;;;;;;;;5094805;28;20207;-80
2022/01/09 06:30:12;;;;;;;16.07;2.17;;;;;;;;;;5095706;28;20297;-80
2022/01/09 06:32:39;;;;;;;12.30;2.03;;;;;;;;;;5094941;28;20312;-80
2022/01/09 06:35:07;;;;;;;8.63;1.70;;;;;;;;;;5094870;28;20237;-80
2022/01/09 06:37:35;;;;;;;10.77;1.67;;;;;;;;;;5094892;28;20628;-80
2022/01/09 06:40:04;;;;;;;9.03;1.93;;;;;;;;;;5094735;28;20204;-80
2022/01/09 06:42:31;;;;;;;12.07;1.90;;;;;;;;;;5114256;28;20638;-80
2022/01/09 06:44:59;;;;;;;10.03;1.80;;;;;;;;;;5114970;28;20272;-81
2022/01/09 06:47:26;;;;;;;10.13;1.87;;;;;;;;;;5113802;28;20245;-81
2022/01/09 06:49:53;;;;;;;9.93;1.80;;;;;;;;;;5094417;28;20230;-81
2022/01/09 06:52:20;;;;;;;13.07;2.27;;;;;;;;;;5094042;28;20693;-80
2022/01/09 06:54:48;;;;;;;13.27;2.20;;;;;;;;;;5094376;28;20244;-80
2022/01/09 06:57:16;;;;;;;7.80;1.80;;;;;;;;;;5099352;28;20305;-80
2022/01/09 06:59:43;;;;;;;13.47;2.20;;;;;;;;;;5094905;28;20229;-80
2022/01/09 07:02:11;;;;;;;16.83;1.87;;;;;;;;;;5093748;28;20241;-80
2022/01/09 07:04:38;;;;;;;10.70;2.10;;;;;;;;;;5094826;28;20239;-80
2022/01/09 07:07:05;;;;;;;12.50;2.37;;;;;;;;;;5094358;28;20228;-80
2022/01/09 07:09:33;;;;;;;8.77;1.80;;;;;;;;;;5094303;28;20201;-80
2022/01/09 07:12:00;;;;;;;11.97;2.27;;;;;;;;;;5094604;28;20308;-80
2022/01/09 07:14:28;;;;;;;13.90;3.20;;;;;;;;;;5093998;28;20246;-80
2022/01/09 07:16:56;;;;;;;9.30;2.37;;;;;;;;;;5093499;28;20223;-80
2022/01/09 07:19:23;;;;;;;17.73;2.50;;;;;;;;;;5093294;28;20210;-81
2022/01/09 07:21:50;;;;;;;13.20;2.27;;;;;;;;;;5096389;28;20204;-81
2022/01/09 07:24:17;;;;;;;15.63;2.37;;;;;;;;;;5111460;28;20283;-81
2022/01/09 07:26:44;;;;;;;12.47;2.87;;;;;;;;;;5114787;28;20628;-83
2022/01/09 07:29:12;;;;;;;13.53;2.60;;;;;;;;;;5108030;28;20298;-80
2022/01/09 07:31:40;;;;;;;11.90;2.40;;;;;;;;;;5093738;28;20204;-80
2022/01/09 07:34:07;;;;;;;11.50;2.63;;;;;;;;;;5092820;28;20301;-81
2022/01/09 07:36:35;;;;;;;14.77;3.90;;;;;;;;;;5093522;28;20203;-81
2022/01/09 07:39:02;;;;;;;13.63;3.07;;;;;;;;;;5092795;28;20227;-80
2022/01/09 07:41:29;;;;;;;12.23;2.50;;;;;;;;;;5100327;28;20231;-81
2022/01/09 07:43:56;;;;;;;10.57;2.20;;;;;;;;;;5097324;28;20310;-81
2022/01/09 07:46:23;;;;;;;11.77;2.50;;;;;;;;;;5094085;28;20204;-81
2022/01/09 07:48:52;;;;;;;15.30;3.03;;;;;;;;;;5094200;28;20232;-81
2022/01/09 07:51:19;;;;;;;13.17;3.03;;;;;;;;;;5094185;28;20282;-81
2022/01/09 07:53:47;;;;;;;9.67;2.87;;;;;;;;;;5093447;28;20218;-81
2022/01/09 07:56:14;;;;;;;11.07;2.17;;;;;;;;;;5092605;28;20216;-81
2022/01/09 07:58:42;;;;;;;11.87;2.23;;;;;;;;;;5093461;28;20287;-81
2022/01/09 08:01:09;;;;;;;16.47;5.20;;;;;;;;;;5093752;28;20289;-81
2022/01/09 08:03:36;;;;;;;18.83;8.00;;;;;;;;;;5093674;28;20285;-81
2022/01/09 08:06:05;;;;;;;15.13;5.97;;;;;;;;;;5093357;28;20235;-81
2022/01/09 08:08:32;;;;;;;12.20;3.97;;;;;;;;;;5104446;28;20309;-81
2022/01/09 08:10:59;;;;;;;15.30;3.57;;;;;;;;;;5093254;28;20301;-81
2022/01/09 08:13:26;;;;;;;15.37;3.17;;;;;;;;;;5093106;28;20309;-81
2022/01/09 08:15:54;;;;;;;14.80;3.10;;;;;;;;;;5112198;28;20369;-80
2022/01/09 08:18:21;;;;;;;17.33;3.63;;;;;;;;;;5096478;28;20229;-81
2022/01/09 08:20:48;;;;;;;14.63;3.10;;;;;;;;;;5104193;28;20231;-81
2022/01/09 08:23:17;;;;;;;11.60;3.13;;;;;;;;;;5093175;28;20286;-80
2022/01/09 08:25:44;;;;;;;13.70;3.60;;;;;;;;;;5093568;28;20232;-81
2022/01/09 08:28:12;;;;;;;12.10;3.10;;;;;;;;;;5092903;28;20230;-80
2022/01/09 08:30:39;;;;;;;18.93;3.47;;;;;;;;;;5092611;28;20281;-80
2022/01/09 08:33:06;;;;;;;15.93;3.90;;;;;;;;;;5091806;28;20287;-80
2022/01/09 08:35:33;;;;;;;14.77;3.67;;;;;;;;;;5107188;28;20289;-80
2022/01/09 08:38:00;;;;;;;12.13;3.47;;;;;;;;;;5104760;28;20282;-80
2022/01/09 08:40:29;;;;;;;15.47;3.30;;;;;;;;;;5092573;28;20289;-80
2022/01/09 08:42:56;;;;;;;16.77;3.43;;;;;;;;;;5092685;28;20213;-82
2022/01/09 08:45:24;;;;;;;9.33;2.67;;;;;;;;;;5096731;28;20236;-81
2022/01/09 08:47:51;;;;;;;13.20;2.73;;;;;;;;;;5101760;28;20207;-81
2022/01/09 08:50:20;;;;;;;12.63;2.50;;;;;;;;;;5091028;28;20313;-81
2022/01/09 08:52:47;;;;;;;13.93;2.53;;;;;;;;;;5092072;28;20198;-81
2022/01/09 08:55:15;;;;;;;14.20;3.37;;;;;;;;;;5083249;28;20239;-81
2022/01/09 08:57:44;;;;;;;10.43;3.40;;;;;;;;;;5080931;28;20237;-80
2022/01/09 09:00:11;;;;;;;10.53;2.90;;;;;;;;;;5084181;28;20240;-81
2022/01/09 09:02:41;;;;;;;13.47;3.47;;;;;;;;;;5091744;28;20234;-81
2022/01/09 09:05:08;;;;;;;9.70;3.80;;;;;;;;;;5091598;28;20289;-80
2022/01/09 09:07:35;;;;;;;11.63;4.10;;;;;;;;;;5091327;28;20238;-79
2022/01/09 09:10:04;;;;;;;10.37;4.70;;;;;;;;;;5091432;28;20241;-79
2022/01/09 09:12:31;;;;;;;10.00;3.73;;;;;;;;;;5090945;28;20689;-79
2022/01/09 09:15:00;;;;;;;12.73;2.93;;;;;;;;;;5091539;28;20214;-80
2022/01/09 09:17:27;;;;;;;11.73;3.00;;;;;;;;;;5092138;28;20205;-80
2022/01/09 09:19:55;;;;;;;9.20;2.73;;;;;;;;;;5079729;28;20293;-80
2022/01/09 09:22:22;;;;;;;7.03;2.30;;;;;;;;;;5091411;28;20281;-80
2022/01/09 09:24:50;;;;;;;10.43;2.70;;;;;;;;;;5097100;28;20679;-81
2022/01/09 09:27:17;;;;;;;7.93;2.60;;;;;;;;;;5112170;28;20288;-80
2022/01/09 09:29:44;;;;;;;8.33;2.87;;;;;;;;;;5105217;28;20269;-80
2022/01/09 09:32:13;;;;;;;8.47;2.70;;;;;;;;;;5091908;28;20285;-80
2022/01/09 09:34:41;;;;;;;11.87;3.57;;;;;;;;;;5091909;28;20226;-80
2022/01/09 09:37:08;;;;;;;10.13;2.93;;;;;;;;;;5091679;28;20203;-80
2022/01/09 09:39:35;;;;;;;6.97;2.30;;;;;;;;;;5095294;28;20281;-80
2022/01/09 09:42:02;;;;;;;7.53;2.30;;;;;;;;;;5095599;28;20280;-80
2022/01/09 09:44:30;;;;;;;9.70;2.43;;;;;;;;;;5111879;28;20221;-80
2022/01/09 09:46:59;;;;;;;11.43;2.27;;;;;;;;;;5092457;28;20289;-80
2022/01/09 09:49:27;;;;;;;12.70;3.47;;;;;;;;;;5091708;28;20673;-80
2022/01/09 09:51:54;;;;;;;10.47;3.50;;;;;;;;;;5089354;28;20635;-81
2022/01/09 09:54:22;;;;;;;7.67;3.27;;;;;;;;;;5090889;28;20245;-81
2022/01/09 09:56:49;;;;;;;9.20;3.43;;;;;;;;;;5088939;28;20301;-81
2022/01/09 09:59:24;;;;;;;8.93;2.90;;;;;;;;;;5090484;28;20668;-81
2022/01/09 10:01:51;;;;;;;9.30;2.87;;;;;;;;;;5090405;28;20193;-81
2022/01/09 10:04:18;;;;;;;8.93;2.67;;;;;;;;;;5090973;28;20289;-80
2022/01/09 10:06:47;;;;;;;9.20;2.70;;;;;;;;;;5089719;28;20238;-82
2022/01/09 10:09:16;;;;;;;8.60;2.60;;;;;;;;;;5086101;28;20206;-81
2022/01/09 10:11:45;;;;;;;11.70;3.33;;;;;;;;;;5089403;28;20225;-80
2022/01/09 10:14:13;;;;;;;11.47;3.77;;;;;;;;;;5089990;28;20249;-80
2022/01/09 10:16:40;;;;;;;11.17;3.17;;;;;;;;;;5095803;28;20202;-81
2022/01/09 10:19:07;;;;;;;12.33;3.20;;;;;;;;;;5090272;28;20571;-80
2022/01/09 10:21:34;;;;;;;10.10;2.60;;;;;;;;;;5089379;28;20302;-80
2022/01/09 10:24:04;;;;;;;9.23;2.37;;;;;;;;;;5087346;28;20282;-80
2022/01/09 10:26:32;;;;;;;10.27;2.53;;;;;;;;;;5089678;28;20746;-79
2022/01/09 10:29:00;;;;;;;9.03;2.50;;;;;;;;;;5089448;28;20578;-80
2022/01/09 10:31:27;;;;;;;7.23;2.47;;;;;;;;;;5088841;28;20285;-80
2022/01/09 10:33:59;;;;;;;10.77;2.47;;;;;;;;;;5089661;28;20313;-80
2022/01/09 10:36:33;;;;;;;7.93;2.40;;;;;;;;;;5088324;28;20209;-80
2022/01/09 10:39:05;;;;;;;11.93;3.40;;;;;;;;;;5088053;28;20285;-80
2022/01/09 10:41:46;;;;;;;11.93;3.00;;;;;;;;;;5088291;28;20237;-82
2022/01/09 10:44:16;;;;;;;9.53;2.80;;;;;;;;;;5088764;28;20260;-82
2022/01/09 10:46:53;;;;;;;12.37;3.00;;;;;;;;;;5089090;28;20226;-81
2022/01/09 10:49:20;;;;;;;10.43;2.80;;;;;;;;;;5087317;28;20285;-82
2022/01/09 10:51:47;;;;;;;10.33;3.10;;;;;;;;;;5089676;28;20195;-81
2022/01/09 10:54:30;;;;;;;11.67;3.07;;;;;;;;;;5089113;28;20222;-83
2022/01/09 10:57:10;;;;;;;11.80;2.30;;;;;;;;;;5086085;28;20226;-82
2022/01/09 10:59:40;;;;;;;12.07;2.87;;;;;;;;;;5087483;28;20285;-82
2022/01/09 11:02:07;;;;;;;10.30;2.43;;;;;;;;;;5089745;28;20198;-83
2022/01/09 11:04:38;;;;;;;13.93;2.87;;;;;;;;;;5089190;28;20198;-83
2022/01/09 11:07:05;;;;;;;9.60;2.40;;;;;;;;;;5088085;28;20214;-83
2022/01/09 11:09:34;;;;;;;10.57;3.30;;;;;;;;;;5092149;28;20247;-83
2022/01/09 11:12:03;;;;;;;11.57;3.67;;;;;;;;;;5092959;28;20815;-83
2022/01/09 11:14:35;;;;;;;11.13;3.17;;;;;;;;;;5092750;28;20210;-83
2022/01/09 11:17:04;;;;;;;11.87;2.87;;;;;;;;;;5092483;28;20225;-82
2022/01/09 11:19:32;;;;;;;8.93;2.80;;;;;;;;;;5093112;28;20206;-82
2022/01/09 11:22:01;;;;;;;10.87;2.40;;;;;;;;;;5091947;28;20241;-82
2022/01/09 11:24:36;;;;;;;9.97;2.53;;;;;;;;;;5096167;28;20225;-81
2022/01/09 11:27:11;;;;;;;9.13;3.03;;;;;;;;;;5092557;28;20256;-82
2022/01/09 11:29:42;;;;;;;7.60;2.47;;;;;;;;;;5096781;28;20225;-82
2022/01/09 11:32:16;;;;;;;9.10;2.20;;;;;;;;;;5093146;28;20237;-82
2022/01/09 11:34:51;;;;;;;10.90;2.30;;;;;;;;;;5092469;28;20329;-82
2022/01/09 11:37:25;;;;;;;8.33;2.23;;;;;;;;;;5094013;28;20292;-82
2022/01/09 11:39:52;;;;;;;10.00;2.90;;;;;;;;;;5094081;28;20198;-81
2022/01/09 11:42:21;;;;;;;6.57;2.10;;;;;;;;;;5093196;28;20222;-81
2022/01/09 11:44:49;;;;;;;11.23;2.27;;;;;;;;;;5092988;28;20309;-81
2022/01/09 11:47:16;;;;;;;8.13;2.37;;;;;;;;;;5090409;28;20282;-82
2022/01/09 11:49:58;;;;;;;8.03;2.17;;;;;;;;;;5093952;28;20242;-81
2022/01/09 11:52:26;;;;;;;9.30;1.87;;;;;;;;;;5087900;28;20223;-83
2022/01/09 11:54:55;;;;;;;11.37;2.20;;;;;;;;;;5093175;28;20211;-84
2022/01/09 11:57:40;;;;;;;5.93;2.00;;;;;;;;;;5090614;28;20223;-82
2022/01/09 12:00:09;;;;;;;6.97;2.00;;;;;;;;;;5086793;28;20758;-83
2022/01/09 12:02:38;;;;;;;6.60;1.77;;;;;;;;;;5093486;28;20285;-83
2022/01/09 12:05:07;;;;;;;5.87;1.83;;;;;;;;;;5093354;28;20205;-83
2022/01/09 12:08:09;;;;;;;9.97;2.20;;;;;;;;;;5093280;28;20232;-84
2022/01/09 12:10:37;;;;;;;8.60;2.50;;;;;;;;;;5093475;28;20209;-84
2022/01/09 12:13:07;;;;;;;9.43;2.30;;;;;;;;;;5093463;28;20233;-84
2022/01/09 12:15:35;;;;;;;6.63;2.33;;;;;;;;;;5092980;28;20701;-84
2022/01/09 12:18:04;;;;;;;6.93;2.50;;;;;;;;;;5092847;28;20290;-83
2022/01/09 12:20:37;;;;;;;7.83;2.70;;;;;;;;;;5093215;28;20206;-84
2022/01/09 12:23:05;;;;;;;8.03;2.47;;;;;;;;;;5093465;28;20198;-83
2022/01/09 12:25:57;;;;;;;7.07;2.10;;;;;;;;;;5093379;28;20191;-83
2022/01/09 12:28:27;;;;;;;11.17;2.73;;;;;;;;;;5093304;28;20236;-84
2022/01/09 12:30:56;;;;;;;5.90;1.87;;;;;;;;;;5093158;28;20298;-83
2022/01/09 12:33:45;;;;;;;11.47;2.23;;;;;;;;;;5092913;28;20209;-84
2022/01/09 12:36:14;;;;;;;7.43;2.10;;;;;;;;;;5092673;28;20229;-83
2022/01/09 12:38:42;;;;;;;10.20;2.50;;;;;;;;;;5093468;28;20208;-84
2022/01/09 12:41:10;;;;;;;8.60;2.20;;;;;;;;;;5093000;28;20289;-84
2022/01/09 12:43:41;;;;;;;7.33;2.17;;;;;;;;;;5093186;28;20232;-83
2022/01/09 12:46:12;;;;;;;11.07;2.80;;;;;;;;;;5092699;28;20198;-84
2022/01/09 12:48:40;;;;;;;7.47;2.83;;;;;;;;;;5093203;28;20291;-84
2022/01/09 12:51:12;;;;;;;10.47;2.57;;;;;;;;;;5092351;28;20693;-84
2022/01/09 12:53:40;;;;;;;8.70;2.97;;;;;;;;;;5093255;28;20224;-84
2022/01/09 12:56:08;;;;;;;10.67;2.87;;;;;;;;;;5092928;28;20313;-84
2022/01/09 12:58:38;;;;;;;10.33;2.73;;;;;;;;;;5092086;28;20195;-85
2022/01/09 13:01:07;;;;;;;9.53;2.73;;;;;;;;;;5092690;28;20289;-84
2022/01/09 13:03:35;;;;;;;7.57;2.67;;;;;;;;;;5092248;28;20229;-83
2022/01/09 13:06:06;;;;;;;9.43;2.40;;;;;;;;;;5092952;28;20206;-84
2022/01/09 13:08:34;;;;;;;17.27;3.07;;;;;;;;;;5092815;28;20252;-84
2022/01/09 13:11:02;;;;;;;11.70;2.70;;;;;;;;;;5093126;28;20198;-83
2022/01/09 13:13:30;;;;;;;11.60;2.73;;;;;;;;;;5092726;28;20194;-84
2022/01/09 13:15:57;;;;;;;9.83;2.37;;;;;;;;;;5092534;28;20313;-84
2022/01/09 13:18:39;;;;;;;10.53;2.50;;;;;;;;;;5092232;28;20289;-84
2022/01/09 13:21:17;;;;;;;14.37;3.27;;;;;;;;;;5092780;28;20285;-84
2022/01/09 13:24:02;;;;;;;10.83;3.23;;;;;;;;;;5092900;28;20285;-84
2022/01/09 13:26:31;;;;;;;9.47;2.93;;;;;;;;;;5092688;28;20241;-84
2022/01/09 13:28:58;;;;;;;10.47;2.47;;;;;;;;;;5092771;28;20237;-84
2022/01/09 13:31:26;;;;;;;13.17;2.93;;;;;;;;;;5091947;28;20214;-84
2022/01/09 13:34:03;;;;;;;10.03;2.70;;;;;;;;;;5092211;28;20226;-84
2022/01/09 13:36:46;;;;;;;8.93;2.50;;;;;;;;;;5092227;28;20205;-84
2022/01/09 13:39:16;;;;;;;8.97;2.60;;;;;;;;;;5092396;28;20194;-84
2022/01/09 13:41:44;;;;;;;10.13;2.70;;;;;;;;;;5091714;28;20284;-84
2022/01/09 13:44:12;;;;;;;11.23;2.90;;;;;;;;;;5091109;28;20748;-84
2022/01/09 13:46:39;;;;;;;10.50;3.23;;;;;;;;;;5091596;28;20689;-84
2022/01/09 13:49:15;;;;;;;13.50;2.70;;;;;;;;;;5102669;28;20205;-84
2022/01/09 13:51:46;;;;;;;10.03;2.67;;;;;;;;;;5093682;28;20551;-84
2022/01/09 13:54:15;;;;;;;9.57;2.80;;;;;;;;;;5091911;28;20305;-84
2022/01/09 13:56:43;;;;;;;13.17;4.60;;;;;;;;;;5091310;28;20254;-84
2022/01/09 13:59:10;;;;;;;6.07;2.50;;;;;;;;;;5091582;28;20662;-84
2022/01/09 14:01:42;;;;;;;8.50;2.57;;;;;;;;;;5091185;28;20294;-84
2022/01/09 14:04:14;;;;;;;8.27;3.23;;;;;;;;;;5091829;28;20197;-84
2022/01/09 14:06:42;;;;;;;12.53;2.80;;;;;;;;;;5090478;28;20578;-84
2022/01/09 14:09:09;;;;;;;8.97;2.90;;;;;;;;;;5091772;28;20233;-84
2022/01/09 14:11:36;;;;;;;9.40;2.60;;;;;;;;;;5091423;28;20234;-84
2022/01/09 14:14:03;;;;;;;8.67;2.67;;;;;;;;;;5090645;28;20247;-84
2022/01/09 14:16:35;;;;;;;8.73;2.67;;;;;;;;;;5090697;28;20665;-84
2022/01/09 14:19:05;;;;;;;8.83;2.43;;;;;;;;;;5091321;28;20198;-84
2022/01/09 14:21:35;;;;;;;12.43;2.70;;;;;;;;;;5091601;28;20579;-84
2022/01/09 14:24:07;;;;;;;10.10;2.90;;;;;;;;;;5091071;28;20190;-84
2022/01/09 14:26:34;;;;;;;11.80;2.60;;;;;;;;;;5091251;28;20195;-84
2022/01/09 14:29:01;;;;;;;12.47;3.00;;;;;;;;;;5090930;28;20682;-84
2022/01/09 14:31:35;;;;;;;12.33;4.07;;;;;;;;;;5091027;28;20292;-84
2022/01/09 14:34:04;;;;;;;11.70;3.07;;;;;;;;;;5091133;28;20321;-84
2022/01/09 14:36:32;;;;;;;12.83;2.87;;;;;;;;;;5091190;28;20614;-84
2022/01/09 14:39:01;;;;;;;13.93;3.43;;;;;;;;;;5090617;28;20339;-84
2022/01/09 14:41:29;;;;;;;9.33;3.13;;;;;;;;;;5090731;28;20570;-84